createdAt,value
2022-11-13T00:01:23.921Z,11.68
2022-11-13T00:04:26.500Z,9.40
2022-11-13T00:07:30.303Z,10.20
2022-11-13T00:10:32.994Z,10.05
2022-11-13T00:13:36.438Z,9.75
2022-11-13T00:16:38.960Z,10.85
2022-11-13T00:19:41.602Z,9.10
2022-11-13T00:22:45.798Z,10.90
2022-11-13T00:25:48.289Z,9.85
2022-11-13T00:28:53.839Z,13.50
2022-11-13T00:31:56.396Z,8.30
2022-11-13T00:34:58.934Z,8.07
2022-11-13T00:38:02.927Z,7.38
2022-11-13T00:41:05.485Z,9.77
2022-11-13T00:44:08.114Z,9.98
2022-11-13T00:47:10.577Z,10.98
2022-11-13T00:50:13.079Z,10.60
2022-11-13T00:53:18.316Z,10.27
2022-11-13T00:56:20.938Z,10.68
2022-11-13T00:59:23.390Z,10.02
2022-11-13T01:02:25.861Z,8.23
2022-11-13T01:05:28.973Z,7.97
2022-11-13T01:08:32.824Z,9.00
2022-11-13T01:11:35.294Z,9.60
2022-11-13T01:14:37.744Z,9.77
2022-11-13T01:17:40.246Z,10.52
2022-11-13T01:20:42.804Z,9.45
2022-11-13T01:23:46.825Z,9.82
2022-11-13T01:26:49.311Z,7.70
2022-11-13T01:29:51.953Z,10.40
2022-11-13T01:32:54.398Z,13.30
2022-11-13T01:36:01.486Z,15.27
2022-11-13T01:39:05.692Z,18.38
2022-11-13T01:42:08.161Z,14.13
2022-11-13T01:45:48.494Z,14.43
2022-11-13T01:48:53.612Z,13.68
2022-11-13T01:51:58.904Z,15.70
2022-11-13T01:55:05.282Z,12.25
2022-11-13T01:58:11.193Z,14.93
2022-11-13T02:01:13.759Z,15.90
2022-11-13T02:04:16.344Z,13.82
2022-11-13T02:07:21.566Z,14.18
2022-11-13T02:10:25.754Z,13.70
2022-11-13T02:13:28.239Z,13.57
2022-11-13T02:16:33.116Z,9.40
2022-11-13T02:19:39.299Z,10.25
2022-11-13T02:22:47.797Z,13.10
2022-11-13T02:25:53.971Z,12.43
2022-11-13T02:28:56.426Z,14.10
2022-11-13T02:31:58.903Z,12.88
2022-11-13T02:35:01.390Z,15.73
2022-11-13T02:38:06.173Z,15.48
2022-11-13T02:41:09.964Z,18.67
2022-11-13T02:44:12.466Z,14.40
2022-11-13T02:47:14.913Z,15.45
2022-11-13T02:50:18.581Z,15.98
2022-11-13T02:53:21.023Z,16.88
2022-11-13T02:56:24.837Z,15.65
2022-11-13T02:59:27.280Z,13.73
2022-11-13T03:02:29.719Z,14.52
2022-11-13T03:05:32.168Z,14.68
2022-11-13T03:08:36.035Z,12.65
2022-11-13T03:11:40.258Z,12.48
2022-11-13T03:14:42.741Z,11.20
2022-11-13T03:17:45.194Z,10.30
2022-11-13T03:20:53.578Z,10.95
2022-11-13T03:23:56.058Z,14.95
2022-11-13T03:26:59.825Z,18.52
2022-11-13T03:30:02.271Z,17.00
2022-11-13T03:33:04.805Z,14.32
2022-11-13T03:36:07.747Z,21.17
2022-11-13T03:39:10.359Z,16.27
2022-11-13T03:42:14.128Z,17.83
2022-11-13T03:45:16.660Z,20.48
2022-11-13T03:48:19.254Z,18.80
2022-11-13T03:51:21.729Z,18.50
2022-11-13T03:54:24.265Z,19.67
2022-11-13T03:57:28.015Z,16.75
2022-11-13T04:00:31.141Z,20.63
2022-11-13T04:03:33.576Z,24.13
2022-11-13T04:06:36.117Z,22.80
2022-11-13T04:09:38.669Z,21.50
2022-11-13T04:12:42.460Z,23.23
2022-11-13T04:15:44.904Z,21.88
2022-11-13T04:18:47.398Z,23.50
2022-11-13T04:21:49.824Z,22.20
2022-11-13T04:24:52.317Z,21.73
2022-11-13T04:27:56.218Z,22.08
2022-11-13T04:30:58.744Z,23.02
2022-11-13T04:34:01.214Z,21.55
2022-11-13T04:37:03.675Z,19.33
2022-11-13T04:40:07.276Z,21.08
2022-11-13T04:43:10.123Z,19.58
2022-11-13T04:46:12.576Z,22.15
2022-11-13T04:49:15.045Z,23.50
2022-11-13T04:52:17.665Z,21.42
2022-11-13T04:55:20.325Z,20.63
2022-11-13T04:58:24.110Z,21.52
2022-11-13T05:01:26.773Z,18.67
2022-11-13T05:04:29.291Z,17.42
2022-11-13T05:07:31.742Z,18.02
2022-11-13T05:10:34.195Z,20.05
2022-11-13T05:13:38.182Z,17.02
2022-11-13T05:16:40.688Z,20.98
2022-11-13T05:19:43.192Z,17.35
2022-11-13T05:22:45.644Z,16.90
2022-11-13T05:25:48.107Z,18.33
2022-11-13T05:28:51.894Z,20.00
2022-11-13T05:31:54.359Z,19.27
2022-11-13T05:34:56.811Z,20.30
2022-11-13T05:38:01.678Z,18.40
2022-11-13T05:41:05.523Z,18.83
2022-11-13T05:44:09.358Z,18.05
2022-11-13T05:47:11.811Z,16.05
2022-11-13T05:50:14.257Z,15.10
2022-11-13T05:53:16.707Z,19.58
2022-11-13T05:56:21.228Z,15.90
2022-11-13T05:59:25.334Z,15.80
2022-11-13T06:02:27.748Z,15.43
2022-11-13T06:05:30.330Z,19.88
2022-11-13T06:08:32.813Z,12.65
2022-11-13T06:11:35.306Z,17.23
2022-11-13T06:14:39.298Z,13.32
2022-11-13T06:17:41.736Z,15.15
2022-11-13T06:20:44.162Z,11.50
2022-11-13T06:23:47.002Z,13.90
2022-11-13T06:26:49.485Z,15.65
2022-11-13T06:29:53.267Z,12.63
2022-11-13T06:32:55.763Z,13.80
2022-11-13T06:35:58.326Z,13.13
2022-11-13T06:39:01.271Z,10.60
2022-11-13T06:42:03.792Z,15.15
2022-11-13T06:45:08.933Z,13.32
2022-11-13T06:48:11.391Z,15.05
2022-11-13T06:51:16.454Z,11.15
2022-11-13T06:54:18.970Z,13.02
2022-11-13T06:57:21.506Z,11.20
2022-11-13T07:00:25.372Z,13.43
2022-11-13T07:03:28.158Z,11.05
2022-11-13T07:06:30.603Z,11.60
2022-11-13T07:09:33.085Z,10.43
2022-11-13T07:12:35.613Z,10.95
2022-11-13T07:15:40.719Z,11.13
2022-11-13T07:18:43.234Z,10.98
2022-11-13T07:21:45.673Z,9.95
2022-11-13T07:24:48.118Z,12.30
2022-11-13T07:27:50.654Z,10.93
2022-11-13T07:30:54.450Z,9.95
2022-11-13T07:33:57.017Z,9.25
2022-11-13T07:36:59.457Z,8.27
2022-11-13T07:40:02.101Z,5.90
2022-11-13T07:43:04.832Z,5.93
2022-11-13T07:46:08.585Z,4.90
2022-11-13T07:49:11.048Z,6.28
2022-11-13T07:52:13.522Z,10.75
2022-11-13T07:55:15.971Z,6.47
2022-11-13T07:58:18.464Z,6.70
2022-11-13T08:01:22.328Z,6.18
2022-11-13T08:04:24.868Z,6.90
2022-11-13T08:07:27.363Z,6.38
2022-11-13T08:10:29.910Z,6.18
2022-11-13T08:13:32.378Z,5.43
2022-11-13T08:16:36.232Z,5.85
2022-11-13T08:19:38.672Z,6.00
2022-11-13T08:22:41.142Z,8.98
2022-11-13T08:25:43.763Z,11.10
2022-11-13T08:28:46.527Z,9.07
2022-11-13T08:31:50.336Z,6.38
2022-11-13T08:34:52.842Z,3.58
2022-11-13T08:37:55.433Z,15.13
2022-11-13T08:41:01.259Z,5.95
2022-11-13T08:44:06.921Z,5.45
2022-11-13T08:47:10.858Z,4.95
2022-11-13T08:50:13.296Z,8.27
2022-11-13T08:53:15.766Z,9.30
2022-11-13T08:56:18.375Z,9.60
2022-11-13T08:59:23.504Z,8.40
2022-11-13T09:02:27.399Z,7.32
2022-11-13T09:05:29.871Z,8.52
2022-11-13T09:08:32.511Z,8.77
2022-11-13T09:11:35.159Z,6.50
2022-11-13T09:14:37.919Z,7.78
2022-11-13T09:17:41.723Z,8.27
2022-11-13T09:20:44.180Z,9.55
2022-11-13T09:23:46.664Z,11.95
2022-11-13T09:26:49.119Z,12.07
2022-11-13T09:29:55.388Z,11.77
2022-11-13T09:33:01.221Z,14.13
2022-11-13T09:36:04.406Z,15.52
2022-11-13T09:39:07.059Z,10.68
2022-11-13T09:42:14.940Z,10.43
2022-11-13T09:45:18.362Z,9.55
2022-11-13T10:16:30.196Z,16.00
2022-11-13T10:19:38.997Z,18.40
2022-11-13T10:22:45.630Z,17.83
2022-11-13T10:25:51.205Z,13.25
2022-11-13T10:29:02.196Z,16.60
2022-11-13T10:32:21.922Z,15.33
2022-11-13T10:35:38.157Z,13.25
2022-11-13T10:55:27.287Z,18.85
2022-11-13T10:58:30.187Z,18.30
2022-11-13T11:01:32.801Z,22.23
2022-11-13T11:04:35.274Z,21.38
2022-11-13T11:07:41.632Z,23.80
2022-11-13T14:01:59.018Z,41.92
2022-11-13T14:05:01.601Z,42.70
2022-11-13T14:08:07.509Z,42.85
2022-11-13T14:11:18.688Z,41.60
2022-11-13T14:14:23.059Z,38.45
2022-11-13T14:17:28.657Z,35.47
2022-11-13T14:20:35.260Z,37.13
2022-11-13T14:23:42.292Z,38.00
2022-11-13T14:26:45.273Z,33.15
